地図

経路データ

SID SEASON NUMBER BASIN SUBBASIN NAME ISO_TIME NATURE LAT LON WMO_WIND WMO_PRES WMO_AGENCY TRACK_TYPE DIST2LAND LANDFALL IFLAG USA_AGENCY USA_ATCF_ID USA_LAT USA_LON USA_RECORD USA_STATUS USA_WIND USA_PRES USA_SSHS USA_R34_NE USA_R34_SE USA_R34_SW USA_R34_NW USA_R50_NE USA_R50_SE USA_R50_SW USA_R50_NW USA_R64_NE USA_R64_SE USA_R64_SW USA_R64_NW USA_POCI USA_ROCI USA_RMW USA_EYE TOKYO_LAT TOKYO_LON TOKYO_GRADE TOKYO_WIND TOKYO_PRES TOKYO_R50_DIR TOKYO_R50_LONG TOKYO_R50_SHORT TOKYO_R30_DIR TOKYO_R30_LONG TOKYO_R30_SHORT TOKYO_LAND CMA_LAT CMA_LON CMA_CAT CMA_WIND CMA_PRES HKO_LAT HKO_LON HKO_CAT HKO_WIND HKO_PRES NEWDELHI_LAT NEWDELHI_LON NEWDELHI_GRADE NEWDELHI_WIND NEWDELHI_PRES NEWDELHI_CI NEWDELHI_DP NEWDELHI_POCI REUNION_LAT REUNION_LON REUNION_TYPE REUNION_WIND REUNION_PRES REUNION_TNUM REUNION_CI REUNION_RMW REUNION_R34_NE REUNION_R34_SE REUNION_R34_SW REUNION_R34_NW REUNION_R50_NE REUNION_R50_SE REUNION_R50_SW REUNION_R50_NW REUNION_R64_NE REUNION_R64_SE REUNION_R64_SW REUNION_R64_NW BOM_LAT BOM_LON BOM_TYPE BOM_WIND BOM_PRES BOM_TNUM BOM_CI BOM_RMW BOM_R34_NE BOM_R34_SE BOM_R34_SW BOM_R34_NW BOM_R50_NE BOM_R50_SE BOM_R50_SW BOM_R50_NW BOM_R64_NE BOM_R64_SE BOM_R64_SW BOM_R64_NW BOM_ROCI BOM_POCI BOM_EYE BOM_POS_METHOD BOM_PRES_METHOD NADI_LAT NADI_LON NADI_CAT NADI_WIND NADI_PRES WELLINGTON_LAT WELLINGTON_LON WELLINGTON_WIND WELLINGTON_PRES DS824_LAT DS824_LON DS824_STAGE DS824_WIND DS824_PRES TD9636_LAT TD9636_LON TD9636_STAGE TD9636_WIND TD9636_PRES TD9635_LAT TD9635_LON TD9635_WIND TD9635_PRES TD9635_ROCI NEUMANN_LAT NEUMANN_LON NEUMANN_CLASS NEUMANN_WIND NEUMANN_PRES MLC_LAT MLC_LON MLC_CLASS MLC_WIND MLC_PRES USA_GUST BOM_GUST BOM_GUST_PER REUNION_GUST REUNION_GUST_PER USA_SEAHGT USA_SEARAD_NE USA_SEARAD_SE USA_SEARAD_SW USA_SEARAD_NW STORM_SPEED STORM_DIR
1947027S13064 1947 8 SI MM NOT_NAMED 1947-01-27 06:00:00 TS -13.4000 64.1000 spur-merge 1012 989 O________OO___ jtwc_sh SH111947 -13.4000 64.1000 -1 -13.4000 64.1000 TC 35 -13.4000 64.1000 2 5 205
1947027S13064 1947 8 SI MM NOT_NAMED 1947-01-27 09:00:00 TS -13.6067 63.9981 spur-merge 989 965 P________PP___ SH111947 -13.5975 63.9900 -1 -13.5975 63.9900 TC 35 -13.6250 64.0143 2 5 204
1947027S13064 1947 8 SI MM NOT_NAMED 1947-01-27 12:00:00 TS -13.8133 63.9109 spur-merge 965 948 O________OP___ jtwc_sh SH111947 -13.8000 63.9000 -1 -13.8000 63.9000 TC 35 -13.8400 63.9328 2 4 200
1947027S13064 1947 8 SI MM NOT_NAMED 1947-01-27 15:00:00 TS -14.0167 63.8483 spur-merge 941 925 P________PP___ SH111947 -14.0075 63.8425 -1 -14.0075 63.8425 TC 35 -14.0350 63.8599 2 4 196
1947027S13064 1947 8 SI MM NOT_NAMED 1947-01-27 18:00:00 TS -14.2000 63.8000 spur-merge 925 916 O________OO___ jtwc_sh SH111947 -14.2000 63.8000 -1 -14.2000 63.8000 TC 35 -14.2000 63.8000 2 3 197
1947027S13064 1947 8 SI MM NOT_NAMED 1947-01-27 21:00:00 TS -14.3445 63.7516 spur-merge 916 893 P________PP___ SH111947 -14.3500 63.7500 -1 -14.3500 63.7500 TC 35 -14.3334 63.7547 2 3 196
1947027S13064 1947 8 SI MM NOT_NAMED 1947-01-28 00:00:00 TS -14.4892 63.7048 spur-merge 893 885 O________OP___ jtwc_sh SH111947 -14.5000 63.7000 -1 -14.5000 63.7000 TC 35 -14.4675 63.7145 2 3 196
1947027S13064 1947 8 SI MM NOT_NAMED 1947-01-28 03:00:00 TS -14.6509 63.6607 spur-merge 877 854 P________PP___ SH111947 -14.6550 63.6574 -1 -14.6550 63.6574 TC 35 -14.6428 63.6671 2 4 194
1947027S13064 1947 8 SI MM NOT_NAMED 1947-01-28 06:00:00 TS -14.9000 63.6000 spur-merge 854 815 O________OO___ jtwc_sh SH111947 -14.9000 63.6000 -1 -14.9000 63.6000 TC 35 -14.9000 63.6000 2 7 193
1947027S13064 1947 8 SI MM NOT_NAMED 1947-01-28 09:00:00 TS -15.3037 63.5076 spur-merge 815 771 P________PP___ SH111947 -15.3050 63.5150 -1 -15.3050 63.5150 TC 35 -15.3010 63.4928 2 9 193
1947027S13064 1947 8 SI MM NOT_NAMED 1947-01-28 12:00:00 TS -15.7942 63.3885 spur-merge 771 728 O________OP___ jtwc_sh SH111947 -15.8000 63.4000 -1 -15.8000 63.4000 TC 35 -15.7826 63.3654 2 10 194
1947027S13064 1947 8 SI MM NOT_NAMED 1947-01-28 15:00:00 TS -16.3043 63.2435 spur-merge 719 678 P________PP___ SH111947 -16.3075 63.2501 -1 -16.3075 63.2501 TC 35 -16.2979 63.2303 2 11 195
1947027S13064 1947 8 SI MM NOT_NAMED 1947-01-28 18:00:00 TS -16.8000 63.1000 spur-merge 678 645 O________OO___ jtwc_sh SH111947 -16.8000 63.1000 -1 -16.8000 63.1000 TC 35 -16.8000 63.1000 2 10 195
1947027S13064 1947 8 SI MM NOT_NAMED 1947-01-28 21:00:00 TS -17.2239 62.9911 spur-merge 645 614 P________PP___ SH111947 -17.2150 62.9924 -1 -17.2150 62.9924 TC 35 -17.2418 62.9886 2 8 194
1947027S13064 1947 8 SI MM NOT_NAMED 1947-01-29 00:00:00 TS -17.6200 62.8950 spur-merge 614 584 O________OP___ jtwc_sh SH111947 -17.6000 62.9000 -1 -17.6000 62.9000 TC 35 -17.6599 62.8849 2 8 193
1947027S13064 1947 8 SI MM NOT_NAMED 1947-01-29 03:00:00 TS -18.0260 62.7912 spur-merge 584 556 P________PP___ SH111947 -18.0150 62.7925 -1 -18.0150 62.7925 TC 35 -18.0481 62.7887 2 8 193
1947027S13064 1947 8 SI MM NOT_NAMED 1947-01-29 06:00:00 TS -18.4000 62.7000 spur-merge 556 533 O________OO___ jtwc_sh SH111947 -18.4000 62.7000 -1 -18.4000 62.7000 TC 35 -18.4000 62.7000 2 7 192
1947027S13064 1947 8 SI MM NOT_NAMED 1947-01-29 09:00:00 TS -18.7213 62.6391 spur-merge 533 523 P________PP___ SH111947 -18.7225 62.6499 -1 -18.7225 62.6499 TC 35 -18.7190 62.6176 2 6 191
1947027S13064 1947 8 SI MM NOT_NAMED 1947-01-29 12:00:00 TS -19.0008 62.5807 spur-merge 523 506 O________OP___ jtwc_sh SH111947 -19.0000 62.6000 -1 -19.0000 62.6000 TC 35 -19.0024 62.5423 2 6 194
1947027S13064 1947 8 SI MM NOT_NAMED 1947-01-29 15:00:00 TS -19.2632 62.4953 spur-merge 504 489 P________PP___ SH111947 -19.2650 62.5075 -1 -19.2650 62.5075 TC 35 -19.2596 62.4708 2 5 199
1947027S13064 1947 8 SI MM NOT_NAMED 1947-01-29 18:00:00 TS -19.5000 62.4000 spur-merge 489 474 O________OO___ jtwc_sh SH111947 -19.5000 62.4000 -1 -19.5000 62.4000 TC 35 -19.5000 62.4000 2 5 203
1947027S13064 1947 8 SI MM NOT_NAMED 1947-01-29 21:00:00 TS -19.7037 62.2993 spur-merge 474 461 P________PP___ SH111947 -19.7000 62.2925 -1 -19.7000 62.2925 TC 35 -19.7110 62.3128 2 4 204
1947027S13064 1947 8 SI MM NOT_NAMED 1947-01-30 00:00:00 TS -19.9042 62.2092 spur-merge 461 449 O________OP___ jtwc_sh SH111947 -19.9000 62.2000 -1 -19.9000 62.2000 TC 35 -19.9125 62.2275 2 4 199
1947027S13064 1947 8 SI MM NOT_NAMED 1947-01-30 03:00:00 TS -20.1243 62.1412 spur-merge 449 448 P________PP___ SH111947 -20.1200 62.1350 -1 -20.1200 62.1350 TC 35 -20.1328 62.1535 2 5 192
1947027S13064 1947 8 SI MM NOT_NAMED 1947-01-30 06:00:00 TS -20.4000 62.1000 spur-merge 448 448 O________OO___ jtwc_sh SH111947 -20.4000 62.1000 -1 -20.4000 62.1000 TC 35 -20.4000 62.1000 2 7 185
1947027S13064 1947 8 SI MM NOT_NAMED 1947-01-30 09:00:00 TS -20.7696 62.0877 spur-merge 451 451 P________PP___ SH111947 -20.7775 62.0925 -1 -20.7775 62.0925 TC 35 -20.7537 62.0783 2 8 182
1947027S13064 1947 8 SI MM NOT_NAMED 1947-01-30 12:00:00 TS -21.1850 62.0924 spur-merge 458 458 O________OP___ jtwc_sh SH111947 -21.2000 62.1000 -1 -21.2000 62.1000 TC 35 -21.1550 62.0773 2 8 0
1947027S13064 1947 8 SI MM NOT_NAMED 1947-01-30 15:00:00 TS -21.5979 62.0959 spur-merge 469 469 P________PP___ SH111947 -21.6075 62.1000 -1 -21.6075 62.1000 TC 35 -21.5788 62.0876 2 8 0
1947027S13064 1947 8 SI MM NOT_NAMED 1947-01-30 18:00:00 TS -22.0000 62.1000 spur-merge 484 484 O________OO___ jtwc_sh SH111947 -22.0000 62.1000 -1 -22.0000 62.1000 TC 35 -22.0000 62.1000 2 8 182
1947027S13064 1947 8 SI MM NOT_NAMED 1947-01-30 21:00:00 TS -22.3472 62.0868 spur-merge 497 497 P________PP___ SH111947 -22.3500 62.1000 -1 -22.3500 62.1000 TC 30 -22.3415 62.0605 2 7 182
1947027S13064 1947 8 SI MM NOT_NAMED 1947-01-31 00:00:00 TS -22.6941 62.0756 spur-merge 516 516 O________OP___ jtwc_sh SH111947 -22.7000 62.1000 -1 -22.7000 62.1000 TC 25 -22.6823 62.0269 2 7 181
1947027S13064 1947 8 SI MM NOT_NAMED 1947-01-31 03:00:00 TS -23.0657 62.0618 spur-merge 539 539 P________PP___ SH111947 -23.0700 62.0778 -1 -23.0700 62.0778 TC 25 -23.0570 62.0298 2 8 179
1947027S13064 1947 8 SI MM NOT_NAMED 1947-01-31 06:00:00 TS -23.5000 62.1000 spur-merge 563 563 O________OO___ jtwc_sh SH111947 -23.5000 62.1000 -1 -23.5000 62.1000 TC 25 -23.5000 62.1000 1 10 171
1947027S13064 1947 8 SI MM NOT_NAMED 1947-01-31 09:00:00 TS -24.0152 62.2186 spur-merge 606 606 P________PP___ SH111947 -24.0049 62.1979 -1 -24.0049 62.1979 TC 25 -24.0357 62.2599 1 12 165
1947027S13064 1947 8 SI MM NOT_NAMED 1947-01-31 12:00:00 TS -24.6161 62.4319 spur-merge 665 665 O________OP___ jtwc_sh SH111947 -24.6000 62.4000 -1 -24.6000 62.4000 TC 25 -24.6483 62.4956 1 14 160
1947027S13064 1947 8 SI MM NOT_NAMED 1947-01-31 15:00:00 TS -25.2891 62.7388 spur-merge 741 741 P________PP___ SH111947 -25.2778 62.7163 -1 -25.2778 62.7163 TC 25 -25.3117 62.7837 1 15 156
1947027S13064 1947 8 SI MM NOT_NAMED 1947-01-31 18:00:00 TS -26.0000 63.1000 spur-merge 825 O________OO___ jtwc_sh SH111947 -26.0000 63.1000 -1 -26.0000 63.1000 TC 25 -26.0000 63.1000 7 16 155

IBTrACS Databaseについて

本データベースは、米国NOAAが公開する1842年以降の世界の熱帯低気圧のベストトラックデータアーカイブInternational Best Track Archive for Climate Stewardship (IBTrACS)を、ウェブで閲覧しやすい形式に変換したものです。

最終更新日:2021-10-21